»·PEaware :: UPS341 LFPG-KSDF

UPS341 :: LFPG-KSDF

FLIGHT INFORMATION

Flight Status: Arrived
Operator:
United Parcel Service
More flights by this operator :: More flights under this callsign
Pilot: Jerome G. (4242)
Aircraft: BOEING 747-400 (WINGLETS)
(B744)
More flights by this aircraft type
Origin: LFPG Charles-De-Gaulle
France
Destination: KSDF Louisville Intl-Standiford
United States
More flights between these airports :: More routes between these airports
Route: EVX2B EVX UT300 SENLO UN502 JSY UN160 LIZAD UL739 GAPLI/M084F300 DINIM/M084F310 NATC ALLRY/N0486F320 N360A TOPPS Q913 CABCI/N0485F340 Q29 KLYNE MALDN DLAMP4
File this flight plan on PilotEdge
Remarks: RMK / POWERED BY SIMBRIEF
Altitude:
(Current/Filed)
30,000ft
Speed:
(Current/Filed)
493kts
Departed: 18-Nov-17 12:48 AM
Arrived: 18-Nov-17 10:40 AM
Distance/Time
Traveled:
3671nm/9:52
Distance/Time
To Go:
Arrived

Flight Plot

Page will automatically refresh every two minutes.

Flight plan parsing failed; only flown route is shown


Map Options




Map Legend


Flown Route
Filed Route
Departure Airport
Arrival Airport
Navaid (VOR, NDB)
Fix

Horizontal Profiles

Position Reports

Time Latitude Longitude Heading Altitude Ground
Speed
18-Nov-17 00:20 48.991616 2.532279 265 405ft 0kts
18-Nov-17 00:21 48.991616 2.532279 265 405ft 0kts
18-Nov-17 00:22 48.991616 2.532279 265 405ft 0kts
18-Nov-17 00:23 48.991616 2.532279 265 405ft 0kts
18-Nov-17 00:24 48.991616 2.532279 265 405ft 0kts
18-Nov-17 00:25 48.991616 2.532279 265 405ft 0kts
18-Nov-17 00:26 48.991616 2.532279 265 405ft 0kts
18-Nov-17 00:27 48.991616 2.532279 265 405ft 0kts
18-Nov-17 00:28 48.991616 2.532279 265 405ft 0kts
18-Nov-17 00:29 48.991616 2.532279 265 405ft 0kts
18-Nov-17 00:30 48.991613 2.532844 281 405ft 2kts
18-Nov-17 00:31 48.991320 2.533526 353 405ft 2kts
18-Nov-17 00:32 48.991020 2.533564 355 405ft 0kts
18-Nov-17 00:33 48.991020 2.533564 355 405ft 0kts
18-Nov-17 00:34 48.991020 2.533564 355 405ft 0kts
18-Nov-17 00:35 48.991020 2.533564 355 405ft 0kts
18-Nov-17 00:36 48.991020 2.533564 355 405ft 0kts
18-Nov-17 00:37 48.991020 2.533564 355 405ft 0kts
18-Nov-17 00:38 48.992146 2.533539 24 405ft 10kts
18-Nov-17 00:39 48.994930 2.534451 11 405ft 12kts
18-Nov-17 00:40 48.997537 2.537446 38 405ft 10kts
18-Nov-17 00:41 48.998357 2.542774 86 405ft 14kts
18-Nov-17 00:42 48.998709 2.549412 84 405ft 16kts
18-Nov-17 00:43 48.999158 2.555419 70 405ft 12kts
18-Nov-17 00:44 48.998949 2.560577 85 405ft 13kts
18-Nov-17 00:45 48.999213 2.565847 86 405ft 11kts
18-Nov-17 00:46 48.999643 2.573432 83 405ft 18kts
18-Nov-17 00:47 48.999981 2.580474 85 405ft 14kts
18-Nov-17 00:48 49.000353 2.586036 84 405ft 12kts
18-Nov-17 00:49 49.000660 2.592254 84 405ft 17kts
18-Nov-17 00:50 49.001110 2.600658 85 405ft 22kts
18-Nov-17 00:51 49.001458 2.608970 103 405ft 13kts
18-Nov-17 00:52 48.998667 2.608720 267 405ft 0kts
18-Nov-17 00:53 48.997393 2.585487 265 405ft 160kts
18-Nov-17 00:54 48.994444 2.506685 265 2390ft 196kts
18-Nov-17 00:55 48.988704 2.413193 265 2863ft 246kts
18-Nov-17 00:56 48.982294 2.305318 267 4059ft 253kts
18-Nov-17 00:57 48.976516 2.198562 267 5288ft 255kts
18-Nov-17 00:58 48.970129 2.090072 267 6745ft 261kts
18-Nov-17 00:59 48.963447 1.978508 268 8103ft 267kts
18-Nov-17 01:00 48.960726 1.864822 279 9378ft 270kts
18-Nov-17 01:01 48.973682 1.750084 282 10217ft 291kts
18-Nov-17 01:02 48.989360 1.617110 281 10641ft 350kts
18-Nov-17 01:03 48.996144 1.555523 281 10840ft 377kts
18-Nov-17 01:04 49.011526 1.411508 280 12368ft 403kts
18-Nov-17 01:05 49.029650 1.240286 281 14808ft 413kts
18-Nov-17 01:06 49.036952 1.062312 274 17006ft 428kts
18-Nov-17 01:07 49.041516 0.878747 275 18990ft 440kts
18-Nov-17 01:08 49.046431 0.689405 275 20767ft 452kts
18-Nov-17 01:09 49.052394 0.495551 275 22436ft 464kts
18-Nov-17 01:10 49.056602 0.330305 275 23748ft 472kts
18-Nov-17 01:11 49.062585 0.093842 275 25581ft 477kts
18-Nov-17 01:12 49.065885 -0.074849 276 26742ft 482kts
18-Nov-17 01:13 49.070267 -0.308303 277 28772ft 473kts
18-Nov-17 01:14 49.073492 -0.509612 278 30058ft 472kts
18-Nov-17 01:15 49.075953 -0.676317 278 30407ft 472kts
18-Nov-17 01:16 49.080011 -0.876024 278 30396ft 472kts
18-Nov-17 01:17 49.082592 -1.109967 278 30396ft 472kts
18-Nov-17 01:18 49.102582 -1.304235 291 30400ft 460kts
18-Nov-17 01:19 49.128515 -1.461179 290 30393ft 457kts
18-Nov-17 01:20 49.159445 -1.650006 290 30398ft 457kts
18-Nov-17 01:21 49.189103 -1.838640 290 30402ft 457kts
18-Nov-17 01:22 49.218223 -2.027366 290 30405ft 456kts
18-Nov-17 01:23 49.249507 -2.213485 291 30415ft 455kts
18-Nov-17 01:24 49.281011 -2.400910 291 30405ft 455kts
18-Nov-17 01:25 49.312489 -2.589164 291 30406ft 455kts
18-Nov-17 01:26 49.344510 -2.776535 291 30406ft 455kts
18-Nov-17 01:27 49.375581 -2.964585 290 30402ft 455kts
18-Nov-17 01:28 49.406346 -3.153413 290 30404ft 455kts
18-Nov-17 01:29 49.436730 -3.342087 290 30398ft 455kts
18-Nov-17 01:30 49.466746 -3.530629 290 30396ft 455kts
18-Nov-17 01:31 49.496504 -3.719690 290 30393ft 453kts
18-Nov-17 01:32 49.526211 -3.907707 290 30391ft 452kts
18-Nov-17 01:33 49.554767 -4.093992 290 30388ft 452kts
18-Nov-17 01:34 49.583176 -4.282920 289 30391ft 452kts
18-Nov-17 01:35 49.608581 -4.473271 286 30381ft 452kts
18-Nov-17 01:36 49.631837 -4.662423 286 30382ft 450kts
18-Nov-17 01:37 49.655113 -4.852961 286 30382ft 451kts
18-Nov-17 01:38 49.679313 -5.042732 286 30384ft 451kts
18-Nov-17 01:39 49.702443 -5.233069 285 30380ft 451kts
18-Nov-17 01:40 49.725250 -5.424258 285 30388ft 451kts
18-Nov-17 01:41 49.748138 -5.614563 285 30391ft 451kts
18-Nov-17 01:42 49.769826 -5.805130 285 30397ft 450kts
18-Nov-17 01:43 49.791233 -5.994381 284 30402ft 450kts
18-Nov-17 01:44 49.812218 -6.184863 284 30405ft 449kts
18-Nov-17 01:45 49.832828 -6.375749 284 30407ft 450kts
18-Nov-17 01:46 49.854168 -6.567412 284 30407ft 451kts
18-Nov-17 01:47 49.875055 -6.758971 284 30406ft 452kts
18-Nov-17 01:48 49.895333 -6.951064 283 30403ft 452kts
18-Nov-17 01:49 49.915340 -7.144102 283 30401ft 452kts
18-Nov-17 01:50 49.934940 -7.336498 283 30394ft 451kts
18-Nov-17 01:51 49.954419 -7.529038 283 30390ft 449kts
18-Nov-17 01:52 49.973507 -7.720457 282 30377ft 448kts
18-Nov-17 01:53 49.991504 -7.910204 281 30371ft 448kts
18-Nov-17 01:54 50.016351 -8.099719 288 30365ft 445kts
18-Nov-17 01:55 50.049055 -8.285027 288 30360ft 444kts
18-Nov-17 01:56 50.080714 -8.470904 287 30355ft 445kts
18-Nov-17 01:57 50.113285 -8.657070 288 30349ft 444kts
18-Nov-17 01:58 50.145081 -8.843032 287 30365ft 445kts
18-Nov-17 01:59 50.176292 -9.029313 287 31336ft 444kts
18-Nov-17 02:00 50.207228 -9.216299 287 31337ft 444kts
18-Nov-17 02:01 50.237758 -9.402953 287 31333ft 444kts
18-Nov-17 02:02 50.268080 -9.590417 287 31337ft 446kts
18-Nov-17 02:03 50.297897 -9.776847 287 31331ft 447kts
18-Nov-17 02:04 50.327699 -9.965310 286 31328ft 447kts
18-Nov-17 02:05 50.357201 -10.154033 286 31325ft 447kts
18-Nov-17 02:06 50.386493 -10.343628 286 31322ft 447kts
18-Nov-17 02:07 50.415354 -10.532645 286 31319ft 445kts
18-Nov-17 02:08 50.443843 -10.721454 286 31317ft 445kts
18-Nov-17 02:09 50.472114 -10.911079 286 31316ft 445kts
18-Nov-17 02:10 50.499992 -11.100355 286 31314ft 445kts
18-Nov-17 02:11 50.527606 -11.290148 285 31313ft 447kts
18-Nov-17 02:12 50.555060 -11.481205 285 31312ft 447kts
18-Nov-17 02:13 50.581813 -11.669728 285 31311ft 448kts
18-Nov-17 02:14 50.608612 -11.860995 285 31310ft 448kts
18-Nov-17 02:15 50.635212 -12.053286 285 31309ft 449kts
18-Nov-17 02:16 50.661458 -12.245552 285 31308ft 449kts
18-Nov-17 02:17 50.687336 -12.437633 284 31307ft 448kts
18-Nov-17 02:18 50.712922 -12.630110 284 31306ft 447kts
18-Nov-17 02:19 50.738087 -12.821992 284 31306ft 447kts
18-Nov-17 02:20 50.762920 -13.013950 284 31306ft 446kts
18-Nov-17 02:21 50.787531 -13.206841 284 31305ft 447kts
18-Nov-17 02:22 50.811766 -13.399477 283 31302ft 447kts
18-Nov-17 02:23 50.835515 -13.590950 283 31300ft 447kts
18-Nov-17 02:24 50.859108 -13.783900 283 31299ft 447kts
18-Nov-17 02:25 50.882369 -13.976927 283 31298ft 447kts
18-Nov-17 02:26 50.905413 -14.171003 282 31297ft 448kts
18-Nov-17 02:27 50.928075 -14.364748 282 31296ft 447kts
18-Nov-17 02:28 50.950857 -14.558389 282 31296ft 447kts
18-Nov-17 02:29 50.972835 -14.752916 281 31296ft 447kts
18-Nov-17 02:30 50.994179 -14.946937 281 31290ft 446kts
18-Nov-17 02:31 51.003761 -15.143403 273 31291ft 449kts
18-Nov-17 02:32 51.006179 -15.339785 273 31308ft 449kts
18-Nov-17 02:33 51.008899 -15.538539 273 31308ft 450kts
18-Nov-17 02:34 51.013057 -15.736643 273 31307ft 449kts
18-Nov-17 02:35 51.016119 -15.935668 273 31307ft 450kts
18-Nov-17 02:36 51.018649 -16.134195 272 31306ft 450kts
18-Nov-17 02:37 51.020798 -16.332777 272 31306ft 450kts
18-Nov-17 02:38 51.022613 -16.532029 271 31305ft 450kts
18-Nov-17 02:39 51.024089 -16.730670 271 31309ft 451kts
18-Nov-17 02:40 51.025224 -16.929524 271 31299ft 450kts
18-Nov-17 02:41 51.026025 -17.129229 271 31298ft 451kts
18-Nov-17 02:42 51.026484 -17.326582 270 31297ft 451kts
18-Nov-17 02:43 51.026609 -17.526553 270 31296ft 452kts
18-Nov-17 02:44 51.026395 -17.725936 270 31295ft 452kts
18-Nov-17 02:45 51.025844 -17.925286 269 31294ft 452kts
18-Nov-17 02:46 51.024954 -18.125566 268 31293ft 454kts
18-Nov-17 02:47 51.023705 -18.326011 268 31292ft 454kts
18-Nov-17 02:48 51.022123 -18.526300 268 31291ft 454kts
18-Nov-17 02:49 51.020191 -18.727374 268 31289ft 454kts
18-Nov-17 02:50 51.017922 -18.927825 267 31301ft 454kts
18-Nov-17 02:51 51.015309 -19.128440 267 31302ft 455kts
18-Nov-17 02:52 51.012371 -19.327897 267 31300ft 455kts
18-Nov-17 02:53 51.009407 -19.528366 267 31298ft 455kts
18-Nov-17 02:54 51.005864 -19.728999 266 31297ft 455kts
18-Nov-17 02:55 51.001510 -19.930387 266 31296ft 455kts
18-Nov-17 02:56 51.017518 -20.129976 279 31295ft 461kts
18-Nov-17 02:57 51.046359 -20.328782 279 31299ft 462kts
18-Nov-17 02:58 51.074141 -20.528691 278 31300ft 462kts
18-Nov-17 02:59 51.103029 -20.727675 279 31299ft 463kts
18-Nov-17 03:00 51.130826 -20.927564 278 31297ft 463kts
18-Nov-17 03:01 51.158175 -21.128489 278 31299ft 464kts
18-Nov-17 03:02 51.184834 -21.327385 277 31295ft 464kts
18-Nov-17 03:03 51.211410 -21.528438 277 31286ft 464kts
18-Nov-17 03:04 51.237706 -21.730272 277 31289ft 463kts
18-Nov-17 03:05 51.263535 -21.931424 277 31261ft 463kts
18-Nov-17 03:06 51.289043 -22.132940 276 31260ft 465kts
18-Nov-17 03:07 51.314406 -22.336335 276 31260ft 465kts
18-Nov-17 03:08 51.339345 -22.539408 275 31203ft 466kts
18-Nov-17 03:09 51.364096 -22.744027 275 31151ft 468kts
18-Nov-17 03:10 51.388494 -22.948893 274 31148ft 470kts
18-Nov-17 03:11 51.412602 -23.154554 274 31148ft 471kts
18-Nov-17 03:12 51.436245 -23.359541 274 31148ft 472kts
18-Nov-17 03:13 51.459703 -23.566244 274 31148ft 472kts
18-Nov-17 03:14 51.482798 -23.773159 273 31209ft 472kts
18-Nov-17 03:15 51.505563 -23.980622 273 31209ft 470kts
18-Nov-17 03:16 51.527916 -24.187835 273 31209ft 473kts
18-Nov-17 03:17 51.549960 -24.395823 272 31209ft 473kts
18-Nov-17 03:18 51.571759 -24.605184 272 31226ft 475kts
18-Nov-17 03:19 51.593195 -24.814801 272 31229ft 476kts
18-Nov-17 03:20 51.614320 -25.025305 271 31226ft 478kts
18-Nov-17 03:21 51.635203 -25.237325 271 31201ft 479kts
18-Nov-17 03:22 51.655499 -25.447505 271 31194ft 480kts
18-Nov-17 03:23 51.675609 -25.659827 270 31194ft 480kts
18-Nov-17 03:24 51.695388 -25.872900 270 31193ft 479kts
18-Nov-17 03:25 51.714711 -26.085361 270 31193ft 480kts
18-Nov-17 03:26 51.733686 -26.298417 270 31194ft 481kts
18-Nov-17 03:27 51.752370 -26.512760 269 31194ft 482kts
18-Nov-17 03:28 51.770678 -26.727380 269 31193ft 484kts
18-Nov-17 03:29 51.788687 -26.943382 268 31195ft 487kts
18-Nov-17 03:30 51.806468 -27.161608 268 31162ft 490kts
18-Nov-17 03:31 51.823858 -27.380187 267 31160ft 492kts
18-Nov-17 03:32 51.838081 -27.562982 267 31160ft 492kts
18-Nov-17 03:33 51.857458 -27.818288 267 31160ft 493kts
18-Nov-17 03:34 51.873704 -28.038333 267 31160ft 493kts
18-Nov-17 03:35 51.886923 -28.221775 267 31161ft 493kts
18-Nov-17 03:36 51.905028 -28.479870 266 31161ft 494kts
18-Nov-17 03:37 51.920111 -28.701466 266 31161ft 496kts
18-Nov-17 03:38 51.932415 -28.887039 266 31162ft 499kts
18-Nov-17 03:39 51.946906 -29.111595 266 31162ft 501kts
18-Nov-17 03:40 51.960983 -29.336508 266 31162ft 503kts
18-Nov-17 03:41 51.975298 -29.563237 266 31163ft 506kts
18-Nov-17 03:42 51.988371 -29.790337 265 31163ft 506kts
18-Nov-17 03:43 52.000761 -30.015430 265 31164ft 505kts
18-Nov-17 03:44 52.009639 -30.242962 264 31158ft 503kts
18-Nov-17 03:45 52.017758 -30.469333 264 31157ft 502kts
18-Nov-17 03:46 52.026829 -30.696581 265 31158ft 504kts
18-Nov-17 03:47 52.035373 -30.923270 265 31158ft 503kts
18-Nov-17 03:48 52.043080 -31.150467 266 31154ft 506kts
18-Nov-17 03:49 52.050351 -31.379734 266 31044ft 508kts
18-Nov-17 03:50 52.057176 -31.609356 266 31042ft 511kts
18-Nov-17 03:51 52.063578 -31.840063 266 31038ft 512kts
18-Nov-17 03:52 52.069525 -32.070692 266 31036ft 513kts
18-Nov-17 03:53 52.075015 -32.301116 266 31033ft 512kts
18-Nov-17 03:54 52.080067 -32.532136 266 31031ft 512kts
18-Nov-17 03:55 52.084675 -32.763728 266 31028ft 511kts
18-Nov-17 03:56 52.088816 -32.994473 267 31026ft 512kts
18-Nov-17 03:57 52.092513 -33.225672 267 31022ft 512kts
18-Nov-17 03:58 52.095777 -33.458090 268 31019ft 514kts
18-Nov-17 03:59 52.098584 -33.690528 268 31016ft 515kts
18-Nov-17 04:00 52.100937 -33.923569 268 31013ft 516kts
18-Nov-17 04:01 52.102844 -34.157676 268 31009ft 516kts
18-Nov-17 04:02 52.104241 -34.385289 268 31006ft 516kts
18-Nov-17 04:03 52.105234 -34.621461 268 31003ft 515kts
18-Nov-17 04:04 52.105748 -34.854908 268 30999ft 515kts
18-Nov-17 04:05 52.105802 -35.087428 268 30995ft 514kts
18-Nov-17 04:06 52.105399 -35.320240 268 30991ft 516kts
18-Nov-17 04:07 52.104534 -35.554352 269 31008ft 517kts
18-Nov-17 04:08 52.103208 -35.788433 269 31006ft 519kts
18-Nov-17 04:09 52.101404 -36.023866 269 31003ft 520kts
18-Nov-17 04:10 52.099138 -36.258656 269 31000ft 519kts
18-Nov-17 04:11 52.096421 -36.492713 268 30998ft 517kts
18-Nov-17 04:12 52.093260 -36.724479 268 30994ft 514kts
18-Nov-17 04:13 52.089654 -36.956012 268 30991ft 511kts
18-Nov-17 04:14 52.085618 -37.186272 268 31011ft 509kts
18-Nov-17 04:15 52.081134 -37.416422 268 31011ft 508kts
18-Nov-17 04:16 52.076224 -37.645591 269 31009ft 508kts
18-Nov-17 04:17 52.070872 -37.874702 269 31006ft 508kts
18-Nov-17 04:18 52.065050 -38.104645 268 31002ft 508kts
18-Nov-17 04:19 52.058811 -38.333545 268 30999ft 507kts
18-Nov-17 04:20 52.052134 -38.561652 268 30992ft 504kts
18-Nov-17 04:21 52.045112 -38.787724 268 30988ft 498kts
18-Nov-17 04:22 52.037774 -39.009870 268 30984ft 496kts
18-Nov-17 04:23 52.029959 -39.233670 267 30980ft 494kts
18-Nov-17 04:24 52.021784 -39.455724 267 30976ft 492kts
18-Nov-17 04:25 52.013753 -39.677152 267 30972ft 491kts
18-Nov-17 04:26 52.004330 -39.898821 267 30967ft 491kts
18-Nov-17 04:27 51.993287 -40.119352 265 30963ft 491kts
18-Nov-17 04:28 51.979742 -40.339525 265 30958ft 491kts
18-Nov-17 04:29 51.965812 -40.559848 265 30953ft 489kts
18-Nov-17 04:30 51.953497 -40.778694 265 30948ft 487kts
18-Nov-17 04:31 51.939903 -40.996300 264 30943ft 485kts
18-Nov-17 04:32 51.925864 -41.211500 264 30937ft 482kts
18-Nov-17 04:33 51.911371 -41.427013 263 30932ft 481kts
18-Nov-17 04:34 51.896512 -41.641919 263 30926ft 480kts
18-Nov-17 04:35 51.881238 -41.857052 262 30920ft 479kts
18-Nov-17 04:36 51.865630 -42.071173 262 30914ft 480kts
18-Nov-17 04:37 51.849632 -42.285185 262 30908ft 480kts
18-Nov-17 04:38 51.833211 -42.499496 262 30901ft 478kts
18-Nov-17 04:39 51.816493 -42.712500 262 30895ft 478kts
18-Nov-17 04:40 51.799427 -42.924886 262 30888ft 477kts
18-Nov-17 04:41 51.781946 -43.137515 262 30881ft 476kts
18-Nov-17 04:42 51.764321 -43.347156 262 30874ft 475kts
18-Nov-17 04:43 51.746202 -43.558023 262 30867ft 475kts
18-Nov-17 04:44 51.727621 -43.769686 261 30860ft 475kts
18-Nov-17 04:45 51.708757 -43.980150 261 30852ft 475kts
18-Nov-17 04:46 51.689445 -44.191135 261 30845ft 474kts
18-Nov-17 04:47 51.669870 -44.400752 261 30837ft 473kts
18-Nov-17 04:48 51.649957 -44.609867 260 30829ft 472kts
18-Nov-17 04:49 51.629652 -44.818952 260 30821ft 471kts
18-Nov-17 04:50 51.609121 -45.026455 260 30813ft 469kts
18-Nov-17 04:51 51.588281 -45.233150 259 30805ft 468kts
18-Nov-17 04:52 51.567264 -45.437884 259 30796ft 467kts
18-Nov-17 04:53 51.545799 -45.643311 258 30700ft 466kts
18-Nov-17 04:54 51.524016 -45.848167 258 30695ft 465kts
18-Nov-17 04:55 51.501833 -46.053274 258 30690ft 465kts
18-Nov-17 04:56 51.479367 -46.257423 257 30686ft 465kts
18-Nov-17 04:57 51.456548 -46.461383 257 30681ft 465kts
18-Nov-17 04:58 51.433294 -46.665873 256 30676ft 465kts
18-Nov-17 04:59 51.409762 -46.869472 256 30672ft 465kts
18-Nov-17 05:00 51.385806 -47.073496 256 30667ft 465kts
18-Nov-17 05:01 51.361573 -47.276667 255 30662ft 465kts
18-Nov-17 05:02 51.337208 -47.477753 255 30658ft 465kts
18-Nov-17 05:03 51.312204 -47.681075 254 30653ft 465kts
18-Nov-17 05:04 51.286937 -47.883450 254 30650ft 465kts
18-Nov-17 05:05 51.261337 -48.085568 253 30645ft 465kts
18-Nov-17 05:06 51.235267 -48.288257 253 30641ft 465kts
18-Nov-17 05:07 51.208944 -48.490042 253 30638ft 465kts
18-Nov-17 05:08 51.182274 -48.691625 253 30634ft 465kts
18-Nov-17 05:09 51.155164 -48.893651 252 30631ft 465kts
18-Nov-17 05:10 51.127787 -49.094863 252 30627ft 465kts
18-Nov-17 05:11 51.100061 -49.295876 252 30624ft 466kts
18-Nov-17 05:12 51.072154 -49.495566 252 30620ft 466kts
18-Nov-17 05:13 51.044180 -49.696570 251 30618ft 466kts
18-Nov-17 05:14 51.015025 -49.896963 251 30615ft 466kts
18-Nov-17 05:15 50.978688 -50.093972 242 30613ft 463kts
18-Nov-17 05:16 50.931535 -50.282988 242 30609ft 460kts
18-Nov-17 05:17 50.884905 -50.471927 242 30606ft 461kts
18-Nov-17 05:18 50.839097 -50.662099 242 30603ft 461kts
18-Nov-17 05:19 50.792640 -50.850883 241 30600ft 461kts
18-Nov-17 05:20 50.745759 -51.039005 240 30598ft 460kts
18-Nov-17 05:21 50.698455 -51.227156 240 30596ft 460kts
18-Nov-17 05:22 50.651561 -51.412128 239 30557ft 459kts
18-Nov-17 05:23 50.604393 -51.598664 239 30556ft 459kts
18-Nov-17 05:24 50.556229 -51.784926 238 30554ft 457kts
18-Nov-17 05:25 50.507994 -51.969413 238 30553ft 456kts
18-Nov-17 05:26 50.462801 -52.157152 240 30537ft 460kts
18-Nov-17 05:27 50.418193 -52.345234 239 30532ft 460kts
18-Nov-17 05:28 50.373288 -52.532966 240 30529ft 462kts
18-Nov-17 05:29 50.328969 -52.722703 239 30526ft 463kts
18-Nov-17 05:30 50.283709 -52.911215 239 30508ft 464kts
18-Nov-17 05:31 50.237923 -53.099622 239 30507ft 465kts
18-Nov-17 05:32 50.191967 -53.287006 238 30505ft 466kts
18-Nov-17 05:33 50.145297 -53.475661 238 30502ft 467kts
18-Nov-17 05:34 50.098220 -53.664343 237 30502ft 467kts
18-Nov-17 05:35 50.050633 -53.853467 237 30508ft 469kts
18-Nov-17 05:36 50.002887 -54.041639 237 30507ft 468kts
18-Nov-17 05:37 49.954724 -54.229873 236 30505ft 468kts
18-Nov-17 05:38 49.906413 -54.417129 236 30503ft 468kts
18-Nov-17 05:39 49.857805 -54.604019 237 30502ft 468kts
18-Nov-17 05:40 49.808696 -54.791254 237 30500ft 468kts
18-Nov-17 05:41 49.759182 -54.978512 237 31072ft 474kts
18-Nov-17 05:42 49.709701 -55.164123 238 32357ft 471kts
18-Nov-17 05:43 49.659501 -55.350953 238 33538ft 468kts
18-Nov-17 05:44 49.609420 -55.535849 238 34448ft 468kts
18-Nov-17 05:45 49.558991 -55.720577 238 34499ft 468kts
18-Nov-17 05:46 49.508152 -55.905331 238 34504ft 467kts
18-Nov-17 05:47 49.457132 -56.089274 238 34505ft 469kts
18-Nov-17 05:48 49.405574 -56.273744 239 34502ft 471kts
18-Nov-17 05:49 49.353476 -56.458690 239 34500ft 471kts
18-Nov-17 05:50 49.301149 -56.643014 239 34497ft 473kts
18-Nov-17 05:51 49.248420 -56.827325 240 34494ft 473kts
18-Nov-17 05:52 49.195554 -57.010700 240 34488ft 475kts
18-Nov-17 05:53 49.141964 -57.195192 240 34489ft 476kts
18-Nov-17 05:54 49.096981 -57.348958 241 34489ft 477kts
18-Nov-17 05:55 49.042452 -57.534060 241 34488ft 477kts
18-Nov-17 05:56 48.978640 -57.748902 241 34483ft 478kts
18-Nov-17 05:57 48.923573 -57.932808 241 34474ft 478kts
18-Nov-17 05:58 48.877226 -58.086448 242 34464ft 480kts
18-Nov-17 05:59 48.821319 -58.270633 242 34453ft 481kts
18-Nov-17 06:00 48.765141 -58.454315 242 34446ft 480kts
18-Nov-17 06:01 48.708488 -58.638158 242 34442ft 481kts
18-Nov-17 06:02 48.652176 -58.819555 242 34442ft 481kts
18-Nov-17 06:03 48.595020 -59.002333 243 34445ft 482kts
18-Nov-17 06:04 48.537313 -59.185524 243 34446ft 482kts
18-Nov-17 06:05 48.479435 -59.367924 243 34450ft 483kts
18-Nov-17 06:06 48.421214 -59.550087 244 34457ft 483kts
18-Nov-17 06:07 48.362472 -59.732554 244 34463ft 483kts
18-Nov-17 06:08 48.303667 -59.913912 244 34478ft 483kts
18-Nov-17 06:09 48.244372 -60.095473 244 34491ft 483kts
18-Nov-17 06:10 48.184991 -60.276014 244 34500ft 483kts
18-Nov-17 06:11 48.125297 -60.456239 244 34507ft 483kts
18-Nov-17 06:12 48.065661 -60.635006 245 34513ft 484kts
18-Nov-17 06:13 48.005339 -60.814580 245 34518ft 484kts
18-Nov-17 06:14 47.944800 -60.993523 246 34521ft 482kts
18-Nov-17 06:15 47.883918 -61.172281 246 34525ft 483kts
18-Nov-17 06:16 47.822819 -61.350452 246 34527ft 484kts
18-Nov-17 06:17 47.761364 -61.528422 247 34533ft 484kts
18-Nov-17 06:18 47.699388 -61.706679 247 34531ft 485kts
18-Nov-17 06:19 47.637290 -61.884070 247 34537ft 485kts
18-Nov-17 06:20 47.574919 -62.061029 247 34570ft 484kts
18-Nov-17 06:21 47.512185 -62.237841 247 34582ft 483kts
18-Nov-17 06:22 47.450188 -62.411412 247 34593ft 482kts
18-Nov-17 06:23 47.387436 -62.585938 248 34609ft 481kts
18-Nov-17 06:24 47.324398 -62.760108 248 34628ft 479kts
18-Nov-17 06:25 47.261603 -62.932488 248 34646ft 477kts
18-Nov-17 06:26 47.198769 -63.103856 249 34663ft 476kts
18-Nov-17 06:27 47.135659 -63.274875 249 34708ft 474kts
18-Nov-17 06:28 47.072623 -63.444612 249 34723ft 473kts
18-Nov-17 06:29 47.009249 -63.614174 249 34735ft 473kts
18-Nov-17 06:30 46.945937 -63.782511 249 34747ft 472kts
18-Nov-17 06:31 46.882470 -63.950214 249 34757ft 471kts
18-Nov-17 06:32 46.819313 -64.116041 250 34782ft 468kts
18-Nov-17 06:33 46.755972 -64.281377 250 34794ft 466kts
18-Nov-17 06:34 46.692464 -64.446127 250 34805ft 467kts
18-Nov-17 06:35 46.628480 -64.611107 250 34822ft 467kts
18-Nov-17 06:36 46.564468 -64.775171 249 34840ft 467kts
18-Nov-17 06:37 46.500209 -64.938855 249 34841ft 467kts
18-Nov-17 06:38 46.435553 -65.102578 249 34841ft 466kts
18-Nov-17 06:39 46.371094 -65.264846 249 34843ft 465kts
18-Nov-17 06:40 46.306389 -65.426754 249 34845ft 465kts
18-Nov-17 06:41 46.241278 -65.588730 249 34866ft 465kts
18-Nov-17 06:42 46.176750 -65.748319 248 34880ft 464kts
18-Nov-17 06:43 46.111610 -65.908494 248 34908ft 464kts
18-Nov-17 06:44 46.045969 -66.068968 248 34914ft 464kts
18-Nov-17 06:45 45.980302 -66.228579 248 34922ft 464kts
18-Nov-17 06:46 45.914450 -66.387728 248 34927ft 463kts
18-Nov-17 06:47 45.848296 -66.546694 248 34929ft 462kts
18-Nov-17 06:48 45.782308 -66.704362 247 34929ft 461kts
18-Nov-17 06:49 45.716309 -66.861175 247 34927ft 460kts
18-Nov-17 06:50 45.649968 -67.017920 247 34927ft 459kts
18-Nov-17 06:51 45.583838 -67.173307 247 34927ft 457kts
18-Nov-17 06:52 45.518261 -67.326544 247 34929ft 457kts
18-Nov-17 06:53 45.452173 -67.481198 246 34931ft 455kts
18-Nov-17 06:54 45.385557 -67.634466 246 34934ft 455kts
18-Nov-17 06:55 45.334850 -67.793942 264 34937ft 436kts
18-Nov-17 06:56 45.314231 -67.962789 267 34964ft 431kts
18-Nov-17 06:57 45.294746 -68.130283 266 34972ft 429kts
18-Nov-17 06:58 45.275541 -68.298010 267 34975ft 429kts
18-Nov-17 06:59 45.256329 -68.465207 266 34978ft 430kts
18-Nov-17 07:00 45.236501 -68.632162 266 34979ft 430kts
18-Nov-17 07:01 45.216278 -68.799677 266 34981ft 429kts
18-Nov-17 07:02 45.196013 -68.965336 266 34980ft 430kts
18-Nov-17 07:03 45.175349 -69.132118 265 34979ft 429kts
18-Nov-17 07:04 45.154399 -69.299130 265 34977ft 429kts
18-Nov-17 07:05 45.133301 -69.465278 265 34969ft 429kts
18-Nov-17 07:06 45.111965 -69.631290 265 34967ft 429kts
18-Nov-17 07:07 45.090295 -69.797869 265 34969ft 429kts
18-Nov-17 07:08 45.068491 -69.963519 264 34966ft 429kts
18-Nov-17 07:09 45.046524 -70.128506 264 34966ft 425kts
18-Nov-17 07:10 45.024349 -70.293102 264 34962ft 426kts
18-Nov-17 07:11 45.002001 -70.457118 264 34943ft 425kts
18-Nov-17 07:12 44.979673 -70.619210 263 34946ft 424kts
18-Nov-17 07:13 44.956868 -70.782895 263 34941ft 424kts
18-Nov-17 07:14 44.933941 -70.945692 263 34938ft 422kts
18-Nov-17 07:15 44.910861 -71.107819 263 34934ft 421kts
18-Nov-17 07:16 44.887572 -71.269837 263 34931ft 420kts
18-Nov-17 07:17 44.864574 -71.430819 262 34933ft 418kts
18-Nov-17 07:18 44.840728 -71.591170 262 34930ft 418kts
18-Nov-17 07:19 44.805708 -71.747320 246 34931ft 427kts
18-Nov-17 07:20 44.738837 -71.887662 242 34921ft 434kts
18-Nov-17 07:21 44.669846 -72.027319 242 34924ft 433kts
18-Nov-17 07:22 44.602909 -72.164167 242 34924ft 429kts
18-Nov-17 07:23 44.535422 -72.302281 242 34925ft 430kts
18-Nov-17 07:24 44.467211 -72.440319 241 34920ft 429kts
18-Nov-17 07:25 44.399121 -72.577442 241 34923ft 430kts
18-Nov-17 07:26 44.330851 -72.714273 241 34917ft 429kts
18-Nov-17 07:27 44.262346 -72.850901 241 34906ft 428kts
18-Nov-17 07:28 44.194148 -72.986296 241 34904ft 426kts
18-Nov-17 07:29 44.125957 -73.120994 240 34895ft 425kts
18-Nov-17 07:30 44.057578 -73.255474 240 34876ft 424kts
18-Nov-17 07:31 43.989409 -73.388927 240 34878ft 424kts
18-Nov-17 07:32 43.921771 -73.520726 240 34865ft 425kts
18-Nov-17 07:33 43.853357 -73.654215 240 34865ft 422kts
18-Nov-17 07:34 43.784929 -73.786213 239 34872ft 422kts
18-Nov-17 07:35 43.716242 -73.917800 239 34877ft 422kts
18-Nov-17 07:36 43.635074 -74.037210 227 34871ft 432kts
18-Nov-17 07:37 43.544220 -74.146056 227 34874ft 433kts
18-Nov-17 07:38 43.453599 -74.255439 227 34861ft 434kts
18-Nov-17 07:39 43.404611 -74.398567 259 34821ft 413kts
18-Nov-17 07:40 43.383774 -74.553104 261 34813ft 412kts
18-Nov-17 07:41 43.363567 -74.708059 261 34803ft 413kts
18-Nov-17 07:42 43.343914 -74.862363 261 34795ft 413kts
18-Nov-17 07:43 43.323718 -75.017726 261 34789ft 414kts
18-Nov-17 07:44 43.303036 -75.173162 260 34788ft 414kts
18-Nov-17 07:45 43.282025 -75.329071 260 34789ft 415kts
18-Nov-17 07:46 43.260819 -75.484635 260 34788ft 415kts
18-Nov-17 07:47 43.239431 -75.639993 260 34774ft 415kts
18-Nov-17 07:48 43.217758 -75.795736 259 34744ft 415kts
18-Nov-17 07:49 43.195918 -75.951055 259 34722ft 415kts
18-Nov-17 07:50 43.173946 -76.105729 259 34712ft 411kts
18-Nov-17 07:51 43.151996 -76.259056 259 34714ft 409kts
18-Nov-17 07:52 43.130441 -76.410210 259 34715ft 409kts
18-Nov-17 07:53 43.107865 -76.562671 259 34718ft 409kts
18-Nov-17 07:54 43.078288 -76.712935 247 34712ft 411kts
18-Nov-17 07:55 43.022531 -76.849847 243 34704ft 414kts
18-Nov-17 07:56 42.965373 -76.986296 243 34700ft 414kts
18-Nov-17 07:57 42.908131 -77.122774 243 34689ft 413kts
18-Nov-17 07:58 42.856692 -77.262298 248 34685ft 411kts
18-Nov-17 07:59 42.807616 -77.403265 247 34679ft 411kts
18-Nov-17 08:00 42.758243 -77.543240 247 34671ft 411kts
18-Nov-17 08:01 42.709425 -77.683454 248 34663ft 410kts
18-Nov-17 08:02 42.660480 -77.822289 248 34659ft 410kts
18-Nov-17 08:03 42.610924 -77.961637 248 34660ft 410kts
18-Nov-17 08:04 42.561238 -78.100565 248 34656ft 408kts
18-Nov-17 08:05 42.511383 -78.239269 248 34657ft 408kts
18-Nov-17 08:06 42.461484 -78.377428 248 34653ft 408kts
18-Nov-17 08:07 42.411436 -78.515315 248 34649ft 408kts
18-Nov-17 08:08 42.361222 -78.652983 248 34649ft 407kts
18-Nov-17 08:09 42.311372 -78.790073 248 34640ft 406kts
18-Nov-17 08:10 42.269508 -78.903640 247 34640ft 405kts
18-Nov-17 08:11 42.218985 -79.039622 247 34647ft 404kts
18-Nov-17 08:12 42.167519 -79.199227 254 34657ft 399kts
18-Nov-17 08:13 42.137729 -79.316612 254 34659ft 396kts
18-Nov-17 08:14 42.101218 -79.456873 254 34656ft 395kts
18-Nov-17 08:15 42.059027 -79.619372 254 34643ft 394kts
18-Nov-17 08:16 42.028978 -79.735105 254 34624ft 393kts
18-Nov-17 08:17 41.992425 -79.873885 254 34608ft 392kts
18-Nov-17 08:18 41.955826 -80.011820 254 34601ft 392kts
18-Nov-17 08:19 41.918917 -80.150138 254 34597ft 392kts
18-Nov-17 08:20 41.882344 -80.288007 253 34595ft 392kts
18-Nov-17 08:21 41.845057 -80.425353 253 34600ft 392kts
18-Nov-17 08:22 41.807950 -80.561447 253 34606ft 392kts
18-Nov-17 08:23 41.767454 -80.696818 251 34609ft 392kts
18-Nov-17 08:24 41.725791 -80.831295 252 34608ft 391kts
18-Nov-17 08:25 41.683991 -80.965967 251 34603ft 390kts
18-Nov-17 08:26 41.643034 -81.099818 252 34593ft 388kts
18-Nov-17 08:27 41.601808 -81.233085 251 34586ft 388kts
18-Nov-17 08:28 41.560247 -81.366176 251 34583ft 387kts
18-Nov-17 08:29 41.518752 -81.498315 251 34588ft 386kts
18-Nov-17 08:30 41.477106 -81.630276 251 34569ft 386kts
18-Nov-17 08:31 41.435639 -81.762353 251 34583ft 385kts
18-Nov-17 08:32 41.394095 -81.892068 251 34599ft 385kts
18-Nov-17 08:33 41.351795 -82.023620 251 34592ft 385kts
18-Nov-17 08:34 41.303448 -82.150550 246 34581ft 386kts
18-Nov-17 08:35 41.253010 -82.276509 246 34572ft 386kts
18-Nov-17 08:36 41.202011 -82.402478 246 34571ft 386kts
18-Nov-17 08:37 41.151135 -82.527694 246 34570ft 386kts
18-Nov-17 08:38 41.088636 -82.644841 238 34564ft 393kts
18-Nov-17 08:39 41.021267 -82.759651 238 34563ft 393kts
18-Nov-17 08:40 40.954609 -82.873942 238 34561ft 392kts
18-Nov-17 08:41 40.888512 -82.988385 239 34558ft 391kts
18-Nov-17 08:42 40.822622 -83.101620 238 34555ft 391kts
18-Nov-17 08:43 40.755931 -83.214859 238 34554ft 391kts
18-Nov-17 08:44 40.689152 -83.328283 238 34553ft 392kts
18-Nov-17 08:45 40.622847 -83.442618 238 34541ft 392kts
18-Nov-17 08:46 40.556676 -83.556231 238 34533ft 391kts
18-Nov-17 08:47 40.490413 -83.669688 238 34514ft 392kts
18-Nov-17 08:48 40.424595 -83.783930 238 34509ft 391kts
18-Nov-17 08:49 40.358247 -83.896835 238 34508ft 391kts
18-Nov-17 08:50 40.291322 -84.010161 238 34492ft 393kts
18-Nov-17 08:51 40.197904 -84.091381 213 34496ft 421kts
18-Nov-17 08:52 40.096354 -84.144272 211 34498ft 426kts
18-Nov-17 08:53 40.096354 -84.144272 211 34498ft 426kts
18-Nov-17 08:54 40.096354 -84.144272 211 34498ft 426kts
18-Nov-17 08:55 40.096354 -84.144272 211 34498ft 426kts
18-Nov-17 08:56 40.096354 -84.144272 211 34498ft 426kts
18-Nov-17 08:57 40.096354 -84.144272 211 34498ft 426kts
18-Nov-17 08:58 40.096354 -84.144272 211 34498ft 426kts
18-Nov-17 08:59 40.096354 -84.144272 211 34498ft 426kts
18-Nov-17 09:00 40.096354 -84.144272 211 34498ft 426kts
18-Nov-17 09:01 40.096354 -84.144272 211 34498ft 426kts
18-Nov-17 09:02 40.096354 -84.144272 211 34498ft 426kts
18-Nov-17 09:03 40.096354 -84.144272 211 34498ft 426kts
18-Nov-17 09:04 40.096354 -84.144272 211 34498ft 426kts
18-Nov-17 09:05 40.096354 -84.144272 211 34498ft 426kts
18-Nov-17 09:06 40.096354 -84.144272 211 34498ft 426kts
18-Nov-17 09:07 40.096354 -84.144272 211 34498ft 426kts
18-Nov-17 09:08 40.096354 -84.144272 211 34498ft 426kts
18-Nov-17 09:09 40.096354 -84.144272 211 34498ft 426kts
18-Nov-17 09:10 40.096354 -84.144272 211 34498ft 426kts
18-Nov-17 09:11 40.096354 -84.144272 211 34498ft 426kts
18-Nov-17 09:12 40.096354 -84.144272 211 34498ft 426kts
18-Nov-17 09:13 40.096354 -84.144272 211 34498ft 426kts
18-Nov-17 09:14 40.096354 -84.144272 211 34498ft 426kts
18-Nov-17 09:15 40.096354 -84.144272 211 34498ft 426kts
18-Nov-17 09:16 40.096354 -84.144272 211 34498ft 426kts
18-Nov-17 09:17 40.096354 -84.144272 211 34498ft 426kts
18-Nov-17 09:18 40.096354 -84.144272 211 34498ft 426kts
18-Nov-17 09:19 40.096354 -84.144272 211 34498ft 426kts
18-Nov-17 09:20 40.096354 -84.144272 211 34498ft 426kts
18-Nov-17 09:21 40.096354 -84.144272 211 34498ft 426kts
18-Nov-17 09:22 40.096354 -84.144272 211 34498ft 426kts
18-Nov-17 09:23 40.096354 -84.144272 211 34498ft 426kts
18-Nov-17 09:24 40.096354 -84.144272 211 34498ft 426kts
18-Nov-17 09:25 40.096354 -84.144272 211 34498ft 426kts
18-Nov-17 09:26 40.096354 -84.144272 211 34498ft 426kts
18-Nov-17 09:27 40.096354 -84.144272 211 34498ft 426kts
18-Nov-17 09:28 40.096354 -84.144272 211 34498ft 426kts
18-Nov-17 09:29 40.096354 -84.144272 211 34498ft 426kts
18-Nov-17 09:30 40.096354 -84.144272 211 34498ft 426kts
18-Nov-17 09:31 40.096354 -84.144272 211 34498ft 426kts
18-Nov-17 09:32 40.096354 -84.144272 211 34498ft 426kts
18-Nov-17 09:33 40.096354 -84.144272 211 34498ft 426kts
18-Nov-17 09:34 40.096354 -84.144272 211 34498ft 426kts
18-Nov-17 09:35 40.096354 -84.144272 211 34498ft 426kts
18-Nov-17 09:36 40.096354 -84.144272 211 34498ft 426kts
18-Nov-17 09:37 40.096354 -84.144272 211 34498ft 426kts
18-Nov-17 09:38 40.096354 -84.144272 211 34498ft 426kts
18-Nov-17 09:39 40.096354 -84.144272 211 34498ft 426kts
18-Nov-17 09:40 40.096354 -84.144272 211 34498ft 426kts
18-Nov-17 09:41 40.096354 -84.144272 211 34498ft 426kts
18-Nov-17 09:42 40.096354 -84.144272 211 34498ft 426kts
18-Nov-17 09:43 40.096354 -84.144272 211 34498ft 426kts
18-Nov-17 09:44 40.096354 -84.144272 211 34498ft 426kts
18-Nov-17 09:45 40.096354 -84.144272 211 34498ft 426kts
18-Nov-17 09:46 40.096354 -84.144272 211 34498ft 426kts
18-Nov-17 09:47 40.096354 -84.144272 211 34498ft 426kts
18-Nov-17 09:48 40.096354 -84.144272 211 34498ft 426kts
18-Nov-17 09:49 40.096354 -84.144272 211 34498ft 426kts
18-Nov-17 09:50 40.096354 -84.144272 211 34498ft 426kts
18-Nov-17 09:51 40.096354 -84.144272 211 34498ft 426kts
18-Nov-17 09:52 40.096354 -84.144272 211 34498ft 426kts
18-Nov-17 09:53 40.096354 -84.144272 211 34498ft 426kts
18-Nov-17 09:54 40.096354 -84.144272 211 34498ft 426kts
18-Nov-17 09:55 40.096354 -84.144272 211 34498ft 426kts
18-Nov-17 09:56 40.096354 -84.144272 211 34498ft 426kts
18-Nov-17 09:57 40.096354 -84.144272 211 34498ft 426kts
18-Nov-17 09:58 40.096354 -84.144272 211 34498ft 426kts
18-Nov-17 09:59 40.096354 -84.144272 211 34498ft 426kts
18-Nov-17 10:00 40.096354 -84.144272 211 34498ft 426kts
18-Nov-17 10:01 40.096354 -84.144272 211 34498ft 426kts
18-Nov-17 10:02 40.072569 -84.156631 212 34457ft 426kts
18-Nov-17 10:03 39.962732 -84.213934 212 34436ft 425kts
18-Nov-17 10:04 39.857301 -84.269376 213 34412ft 381kts
18-Nov-17 10:05 39.760817 -84.319787 213 33098ft 384kts
18-Nov-17 10:06 39.661824 -84.371283 212 31399ft 377kts
18-Nov-17 10:07 39.566306 -84.420809 212 29642ft 360kts
18-Nov-17 10:08 39.475644 -84.467673 212 27978ft 342kts
18-Nov-17 10:09 39.384731 -84.514547 211 26272ft 359kts
18-Nov-17 10:10 39.293732 -84.561467 211 24536ft 343kts
18-Nov-17 10:11 39.207146 -84.605908 211 22865ft 327kts
18-Nov-17 10:12 39.125315 -84.647664 211 21284ft 311kts
18-Nov-17 10:13 39.043702 -84.689225 210 19646ft 322kts
18-Nov-17 10:14 38.970785 -84.746067 225 17985ft 296kts
18-Nov-17 10:15 38.908235 -84.808158 223 16922ft 285kts
18-Nov-17 10:16 38.843027 -84.871300 222 15120ft 290kts
18-Nov-17 10:17 38.779335 -84.932762 221 13442ft 283kts
18-Nov-17 10:18 38.717156 -84.992836 221 11813ft 276kts
18-Nov-17 10:19 38.656212 -85.051382 220 10251ft 269kts
18-Nov-17 10:20 38.601224 -85.104308 221 9768ft 229kts
18-Nov-17 10:21 38.550792 -85.152734 220 9339ft 225kts
18-Nov-17 10:22 38.526326 -85.176109 220 9129ft 224kts
18-Nov-17 10:23 38.526326 -85.176109 220 9129ft 224kts
18-Nov-17 10:24 38.526326 -85.176109 220 9129ft 224kts
18-Nov-17 10:25 38.511634 -85.190130 220 9007ft 224kts
18-Nov-17 10:26 38.470284 -85.229549 220 8648ft 222kts
18-Nov-17 10:27 38.420965 -85.276516 220 8225ft 219kts
18-Nov-17 10:28 38.364252 -85.330491 219 7738ft 217kts
18-Nov-17 10:29 38.324062 -85.368547 219 7393ft 215kts
18-Nov-17 10:30 38.276125 -85.413926 219 6979ft 213kts
18-Nov-17 10:31 38.231153 -85.477153 245 6497ft 212kts
18-Nov-17 10:32 38.218863 -85.537406 249 6155ft 214kts
18-Nov-17 10:33 38.215558 -85.612698 284 5736ft 240kts
18-Nov-17 10:34 38.276573 -85.660659 341 5108ft 287kts
18-Nov-17 10:35 38.355857 -85.674685 336 4015ft 274kts
18-Nov-17 10:36 38.426503 -85.701595 333 3918ft 262kts
18-Nov-17 10:37 38.458891 -85.754547 258 3942ft 183kts
18-Nov-17 10:38 38.438744 -85.805667 198 3917ft 173kts
18-Nov-17 10:39 38.390706 -85.814138 191 3907ft 175kts
18-Nov-17 10:40 38.345740 -85.801775 175 3802ft 154kts
18-Nov-17 10:41 38.306187 -85.788218 175 2925ft 142kts
18-Nov-17 10:42 38.268192 -85.775622 172 2183ft 155kts
18-Nov-17 10:43 38.227211 -85.762307 168 1393ft 150kts
18-Nov-17 10:44 38.188299 -85.749273 169 616ft 143kts
18-Nov-17 10:45 38.164282 -85.741309 164 514ft 9kts
18-Nov-17 10:46 38.164991 -85.739903 344 514ft 5kts
18-Nov-17 10:47 38.166960 -85.739601 348 514ft 8kts
18-Nov-17 10:48 38.168290 -85.738857 108 514ft 5kts
18-Nov-17 10:49 38.168798 -85.738424 16 514ft 0kts
18-Nov-17 10:50 38.168798 -85.738424 16 514ft 0kts
18-Nov-17 10:51 38.168798 -85.738424 16 514ft 0kts
18-Nov-17 10:52 38.168798 -85.738424 16 514ft 0kts
18-Nov-17 10:53 38.168798 -85.738424 16 514ft 0kts
18-Nov-17 10:54 38.168798 -85.738424 16 514ft 0kts
18-Nov-17 10:55 38.168798 -85.738424 16 514ft 0kts
18-Nov-17 10:56 38.168798 -85.738424 16 514ft 0kts
18-Nov-17 10:57 38.168798 -85.738424 16 514ft 0kts
18-Nov-17 10:58 38.168798 -85.738424 16 514ft 0kts
18-Nov-17 10:59 38.168798 -85.738424 16 514ft 0kts

Navigation Log

Ident Type
Flight plan parsing failed, navigation log unavailable